sensor_id;sensor_type;location;lat;lon;timestamp;P1;durP1;ratioP1;P2;durP2;ratioP2
1390;SDS011;690;51.454;7.194;2022-07-05T00:00:22;6.27;;;2.50;;
1390;SDS011;690;51.454;7.194;2022-07-05T00:02:50;7.80;;;2.90;;
1390;SDS011;690;51.454;7.194;2022-07-05T00:05:16;3.17;;;2.10;;
1390;SDS011;690;51.454;7.194;2022-07-05T00:07:43;4.80;;;2.50;;
1390;SDS011;690;51.454;7.194;2022-07-05T00:10:10;2.40;;;2.20;;
1390;SDS011;690;51.454;7.194;2022-07-05T00:12:38;3.70;;;2.50;;
1390;SDS011;690;51.454;7.194;2022-07-05T00:15:12;2.87;;;2.30;;
1390;SDS011;690;51.454;7.194;2022-07-05T00:17:39;2.83;;;2.63;;
1390;SDS011;690;51.454;7.194;2022-07-05T00:20:06;2.50;;;2.30;;
1390;SDS011;690;51.454;7.194;2022-07-05T00:22:34;5.03;;;2.57;;
1390;SDS011;690;51.454;7.194;2022-07-05T00:25:01;2.70;;;2.17;;
1390;SDS011;690;51.454;7.194;2022-07-05T00:27:29;6.70;;;2.80;;
1390;SDS011;690;51.454;7.194;2022-07-05T00:29:56;2.60;;;2.40;;
1390;SDS011;690;51.454;7.194;2022-07-05T00:32:24;3.20;;;2.10;;
1390;SDS011;690;51.454;7.194;2022-07-05T00:34:51;3.43;;;2.40;;
1390;SDS011;690;51.454;7.194;2022-07-05T00:37:18;2.50;;;2.30;;
1390;SDS011;690;51.454;7.194;2022-07-05T00:39:45;2.63;;;2.10;;
1390;SDS011;690;51.454;7.194;2022-07-05T00:42:12;2.80;;;2.57;;
1390;SDS011;690;51.454;7.194;2022-07-05T00:44:39;2.77;;;2.10;;
1390;SDS011;690;51.454;7.194;2022-07-05T00:47:08;3.07;;;2.60;;
1390;SDS011;690;51.454;7.194;2022-07-05T00:49:38;3.20;;;2.73;;
1390;SDS011;690;51.454;7.194;2022-07-05T00:52:07;6.03;;;2.60;;
1390;SDS011;690;51.454;7.194;2022-07-05T00:54:34;3.60;;;2.17;;
1390;SDS011;690;51.454;7.194;2022-07-05T00:57:03;3.10;;;2.50;;
1390;SDS011;690;51.454;7.194;2022-07-05T00:59:32;3.80;;;2.70;;
1390;SDS011;690;51.454;7.194;2022-07-05T01:01:59;2.40;;;2.20;;
1390;SDS011;690;51.454;7.194;2022-07-05T01:04:27;2.30;;;2.10;;
1390;SDS011;690;51.454;7.194;2022-07-05T01:06:57;3.03;;;2.47;;
1390;SDS011;690;51.454;7.194;2022-07-05T01:09:24;2.87;;;2.40;;
1390;SDS011;690;51.454;7.194;2022-07-05T01:11:51;2.77;;;2.10;;
1390;SDS011;690;51.454;7.194;2022-07-05T01:14:20;4.90;;;2.27;;
1390;SDS011;690;51.454;7.194;2022-07-05T01:16:48;2.43;;;2.20;;
1390;SDS011;690;51.454;7.194;2022-07-05T01:19:16;3.33;;;2.30;;
1390;SDS011;690;51.454;7.194;2022-07-05T01:21:43;2.73;;;2.50;;
1390;SDS011;690;51.454;7.194;2022-07-05T01:24:15;2.73;;;2.17;;
1390;SDS011;690;51.454;7.194;2022-07-05T01:26:44;2.27;;;2.07;;
1390;SDS011;690;51.454;7.194;2022-07-05T01:29:12;2.13;;;1.93;;
1390;SDS011;690;51.454;7.194;2022-07-05T01:31:39;6.23;;;2.30;;
1390;SDS011;690;51.454;7.194;2022-07-05T01:34:07;2.37;;;2.10;;
1390;SDS011;690;51.454;7.194;2022-07-05T01:36:35;2.23;;;2.00;;
1390;SDS011;690;51.454;7.194;2022-07-05T01:39:02;2.00;;;1.80;;
1390;SDS011;690;51.454;7.194;2022-07-05T01:41:32;3.00;;;2.60;;
1390;SDS011;690;51.454;7.194;2022-07-05T01:43:59;2.30;;;2.10;;
1390;SDS011;690;51.454;7.194;2022-07-05T01:46:28;2.77;;;2.40;;
1390;SDS011;690;51.454;7.194;2022-07-05T01:49:03;2.93;;;2.20;;
1390;SDS011;690;51.454;7.194;2022-07-05T01:51:33;3.30;;;2.43;;
1390;SDS011;690;51.454;7.194;2022-07-05T01:54:03;2.93;;;2.40;;
1390;SDS011;690;51.454;7.194;2022-07-05T01:56:31;4.70;;;2.40;;
1390;SDS011;690;51.454;7.194;2022-07-05T01:58:58;3.73;;;2.47;;
1390;SDS011;690;51.454;7.194;2022-07-05T02:01:32;2.20;;;1.80;;
1390;SDS011;690;51.454;7.194;2022-07-05T02:04:01;2.90;;;2.40;;
1390;SDS011;690;51.454;7.194;2022-07-05T02:06:30;2.30;;;2.00;;
1390;SDS011;690;51.454;7.194;2022-07-05T02:08:58;3.20;;;2.43;;
1390;SDS011;690;51.454;7.194;2022-07-05T02:11:25;3.10;;;2.50;;
1390;SDS011;690;51.454;7.194;2022-07-05T02:13:54;2.97;;;2.67;;
1390;SDS011;690;51.454;7.194;2022-07-05T02:16:22;3.27;;;2.90;;
1390;SDS011;690;51.454;7.194;2022-07-05T02:18:49;3.07;;;2.77;;
1390;SDS011;690;51.454;7.194;2022-07-05T02:21:16;3.60;;;2.70;;
1390;SDS011;690;51.454;7.194;2022-07-05T02:23:44;2.60;;;2.40;;
1390;SDS011;690;51.454;7.194;2022-07-05T02:26:11;3.93;;;2.77;;
1390;SDS011;690;51.454;7.194;2022-07-05T02:28:38;3.00;;;2.70;;
1390;SDS011;690;51.454;7.194;2022-07-05T02:31:07;2.40;;;2.20;;
1390;SDS011;690;51.454;7.194;2022-07-05T02:33:34;2.60;;;2.40;;
1390;SDS011;690;51.454;7.194;2022-07-05T02:36:05;5.27;;;3.17;;
1390;SDS011;690;51.454;7.194;2022-07-05T02:38:34;4.10;;;2.90;;
1390;SDS011;690;51.454;7.194;2022-07-05T02:41:03;2.80;;;2.47;;
1390;SDS011;690;51.454;7.194;2022-07-05T02:43:31;4.77;;;2.47;;
1390;SDS011;690;51.454;7.194;2022-07-05T02:45:58;2.77;;;2.40;;
1390;SDS011;690;51.454;7.194;2022-07-05T02:48:27;2.73;;;2.53;;
1390;SDS011;690;51.454;7.194;2022-07-05T02:50:54;2.87;;;2.60;;
1390;SDS011;690;51.454;7.194;2022-07-05T02:53:21;2.73;;;2.53;;
1390;SDS011;690;51.454;7.194;2022-07-05T02:55:48;2.70;;;2.50;;
1390;SDS011;690;51.454;7.194;2022-07-05T02:58:15;2.87;;;2.57;;
1390;SDS011;690;51.454;7.194;2022-07-05T03:00:43;2.77;;;2.33;;
1390;SDS011;690;51.454;7.194;2022-07-05T03:03:10;3.70;;;2.30;;
1390;SDS011;690;51.454;7.194;2022-07-05T03:05:39;2.40;;;2.20;;
1390;SDS011;690;51.454;7.194;2022-07-05T03:08:06;3.43;;;2.23;;
1390;SDS011;690;51.454;7.194;2022-07-05T03:10:33;3.03;;;2.40;;
1390;SDS011;690;51.454;7.194;2022-07-05T03:13:01;2.80;;;2.60;;
1390;SDS011;690;51.454;7.194;2022-07-05T03:15:28;4.43;;;2.40;;
1390;SDS011;690;51.454;7.194;2022-07-05T03:17:55;5.93;;;2.87;;
1390;SDS011;690;51.454;7.194;2022-07-05T03:20:22;3.70;;;2.80;;
1390;SDS011;690;51.454;7.194;2022-07-05T03:22:51;3.23;;;2.70;;
1390;SDS011;690;51.454;7.194;2022-07-05T03:25:18;3.10;;;2.80;;
1390;SDS011;690;51.454;7.194;2022-07-05T03:27:46;3.90;;;3.10;;
1390;SDS011;690;51.454;7.194;2022-07-05T03:30:13;5.83;;;2.87;;
1390;SDS011;690;51.454;7.194;2022-07-05T03:32:40;5.40;;;2.93;;
1390;SDS011;690;51.454;7.194;2022-07-05T03:35:07;2.70;;;2.40;;
1390;SDS011;690;51.454;7.194;2022-07-05T03:37:34;3.77;;;3.30;;
1390;SDS011;690;51.454;7.194;2022-07-05T03:40:04;3.40;;;3.10;;
1390;SDS011;690;51.454;7.194;2022-07-05T03:42:32;3.27;;;2.73;;
1390;SDS011;690;51.454;7.194;2022-07-05T03:45:00;5.17;;;2.77;;
1390;SDS011;690;51.454;7.194;2022-07-05T03:47:27;4.20;;;3.10;;
1390;SDS011;690;51.454;7.194;2022-07-05T03:49:54;4.60;;;2.83;;
1390;SDS011;690;51.454;7.194;2022-07-05T03:52:21;4.07;;;3.07;;
1390;SDS011;690;51.454;7.194;2022-07-05T03:54:48;5.70;;;3.20;;
1390;SDS011;690;51.454;7.194;2022-07-05T03:57:17;4.97;;;3.53;;
1390;SDS011;690;51.454;7.194;2022-07-05T03:59:44;3.57;;;2.70;;
1390;SDS011;690;51.454;7.194;2022-07-05T04:02:11;3.50;;;3.00;;
1390;SDS011;690;51.454;7.194;2022-07-05T04:04:38;4.30;;;3.33;;
1390;SDS011;690;51.454;7.194;2022-07-05T04:07:05;7.40;;;3.77;;
1390;SDS011;690;51.454;7.194;2022-07-05T04:09:32;4.33;;;3.90;;
1390;SDS011;690;51.454;7.194;2022-07-05T04:11:59;7.97;;;3.40;;
1390;SDS011;690;51.454;7.194;2022-07-05T04:14:27;5.60;;;3.40;;
1390;SDS011;690;51.454;7.194;2022-07-05T04:16:55;4.93;;;3.27;;
1390;SDS011;690;51.454;7.194;2022-07-05T04:19:22;3.20;;;2.90;;
1390;SDS011;690;51.454;7.194;2022-07-05T04:21:49;5.27;;;3.50;;
1390;SDS011;690;51.454;7.194;2022-07-05T04:24:16;4.63;;;3.60;;
1390;SDS011;690;51.454;7.194;2022-07-05T04:26:43;4.37;;;3.03;;
1390;SDS011;690;51.454;7.194;2022-07-05T04:29:10;4.43;;;3.37;;
1390;SDS011;690;51.454;7.194;2022-07-05T04:31:38;6.60;;;3.20;;
1390;SDS011;690;51.454;7.194;2022-07-05T04:34:05;6.83;;;3.80;;
1390;SDS011;690;51.454;7.194;2022-07-05T04:36:32;5.67;;;3.13;;
1390;SDS011;690;51.454;7.194;2022-07-05T04:38:59;4.60;;;3.13;;
1390;SDS011;690;51.454;7.194;2022-07-05T04:41:26;3.80;;;3.40;;
1390;SDS011;690;51.454;7.194;2022-07-05T04:43:53;5.53;;;3.97;;
1390;SDS011;690;51.454;7.194;2022-07-05T04:46:20;5.37;;;3.77;;
1390;SDS011;690;51.454;7.194;2022-07-05T04:48:48;6.10;;;3.87;;
1390;SDS011;690;51.454;7.194;2022-07-05T04:51:16;4.47;;;3.53;;
1390;SDS011;690;51.454;7.194;2022-07-05T04:53:43;5.27;;;3.83;;
1390;SDS011;690;51.454;7.194;2022-07-05T04:56:10;4.97;;;3.73;;
1390;SDS011;690;51.454;7.194;2022-07-05T04:58:37;4.60;;;3.10;;
1390;SDS011;690;51.454;7.194;2022-07-05T05:01:04;4.77;;;3.90;;
1390;SDS011;690;51.454;7.194;2022-07-05T05:03:31;4.37;;;3.97;;
1390;SDS011;690;51.454;7.194;2022-07-05T05:06:01;4.03;;;3.03;;
1390;SDS011;690;51.454;7.194;2022-07-05T05:08:28;5.00;;;3.50;;
1390;SDS011;690;51.454;7.194;2022-07-05T05:10:55;4.80;;;3.60;;
1390;SDS011;690;51.454;7.194;2022-07-05T05:13:21;4.00;;;3.60;;
1390;SDS011;690;51.454;7.194;2022-07-05T05:15:48;6.37;;;3.77;;
1390;SDS011;690;51.454;7.194;2022-07-05T05:18:15;5.10;;;3.90;;
1390;SDS011;690;51.454;7.194;2022-07-05T05:20:43;4.17;;;3.40;;
1390;SDS011;690;51.454;7.194;2022-07-05T05:23:12;6.87;;;4.20;;
1390;SDS011;690;51.454;7.194;2022-07-05T05:25:39;5.00;;;3.80;;
1390;SDS011;690;51.454;7.194;2022-07-05T05:28:05;6.47;;;4.17;;
1390;SDS011;690;51.454;7.194;2022-07-05T05:30:32;6.07;;;3.90;;
1390;SDS011;690;51.454;7.194;2022-07-05T05:32:59;6.53;;;3.60;;
1390;SDS011;690;51.454;7.194;2022-07-05T05:35:26;4.37;;;3.60;;
1390;SDS011;690;51.454;7.194;2022-07-05T05:37:54;7.50;;;4.77;;
1390;SDS011;690;51.454;7.194;2022-07-05T05:40:24;4.80;;;3.90;;
1390;SDS011;690;51.454;7.194;2022-07-05T05:42:52;6.10;;;3.53;;
1390;SDS011;690;51.454;7.194;2022-07-05T05:45:20;4.30;;;3.43;;
1390;SDS011;690;51.454;7.194;2022-07-05T05:47:48;3.97;;;3.57;;
1390;SDS011;690;51.454;7.194;2022-07-05T05:50:19;3.47;;;3.17;;
1390;SDS011;690;51.454;7.194;2022-07-05T05:52:47;3.80;;;2.97;;
1390;SDS011;690;51.454;7.194;2022-07-05T05:55:14;3.57;;;3.23;;
1390;SDS011;690;51.454;7.194;2022-07-05T05:57:43;6.77;;;3.17;;
1390;SDS011;690;51.454;7.194;2022-07-05T06:00:10;3.70;;;3.07;;
1390;SDS011;690;51.454;7.194;2022-07-05T06:02:38;3.60;;;2.83;;
1390;SDS011;690;51.454;7.194;2022-07-05T06:05:06;3.67;;;2.93;;
1390;SDS011;690;51.454;7.194;2022-07-05T06:07:42;4.17;;;3.20;;
1390;SDS011;690;51.454;7.194;2022-07-05T06:10:11;3.70;;;2.90;;
1390;SDS011;690;51.454;7.194;2022-07-05T06:12:43;5.77;;;3.27;;
1390;SDS011;690;51.454;7.194;2022-07-05T06:15:10;5.37;;;2.80;;
1390;SDS011;690;51.454;7.194;2022-07-05T06:17:37;4.97;;;3.17;;
1390;SDS011;690;51.454;7.194;2022-07-05T06:20:06;6.40;;;3.63;;
1390;SDS011;690;51.454;7.194;2022-07-05T06:22:34;4.00;;;3.00;;
1390;SDS011;690;51.454;7.194;2022-07-05T06:25:02;4.83;;;3.20;;
1390;SDS011;690;51.454;7.194;2022-07-05T06:27:29;6.10;;;3.43;;
1390;SDS011;690;51.454;7.194;2022-07-05T06:29:58;5.33;;;3.10;;
1390;SDS011;690;51.454;7.194;2022-07-05T06:32:25;3.60;;;2.57;;
1390;SDS011;690;51.454;7.194;2022-07-05T06:34:52;4.60;;;2.37;;
1390;SDS011;690;51.454;7.194;2022-07-05T06:37:19;4.70;;;2.43;;
1390;SDS011;690;51.454;7.194;2022-07-05T06:39:45;3.93;;;2.00;;
1390;SDS011;690;51.454;7.194;2022-07-05T06:42:12;3.40;;;2.10;;
1390;SDS011;690;51.454;7.194;2022-07-05T06:44:40;3.93;;;2.63;;
1390;SDS011;690;51.454;7.194;2022-07-05T06:47:08;3.40;;;2.10;;
1390;SDS011;690;51.454;7.194;2022-07-05T06:49:35;4.30;;;2.17;;
1390;SDS011;690;51.454;7.194;2022-07-05T06:52:03;4.10;;;2.93;;
1390;SDS011;690;51.454;7.194;2022-07-05T06:54:30;3.93;;;2.90;;
1390;SDS011;690;51.454;7.194;2022-07-05T06:56:57;1.70;;;1.50;;
1390;SDS011;690;51.454;7.194;2022-07-05T06:59:24;5.27;;;1.90;;
1390;SDS011;690;51.454;7.194;2022-07-05T07:01:51;2.63;;;1.10;;
1390;SDS011;690;51.454;7.194;2022-07-05T07:04:19;2.60;;;1.20;;
1390;SDS011;690;51.454;7.194;2022-07-05T07:06:46;4.10;;;1.70;;
1390;SDS011;690;51.454;7.194;2022-07-05T07:09:13;11.37;;;1.67;;
1390;SDS011;690;51.454;7.194;2022-07-05T07:11:47;3.10;;;1.30;;
1390;SDS011;690;51.454;7.194;2022-07-05T07:14:15;2.47;;;1.60;;
1390;SDS011;690;51.454;7.194;2022-07-05T07:16:42;2.40;;;2.20;;
1390;SDS011;690;51.454;7.194;2022-07-05T07:19:10;3.50;;;1.80;;
1390;SDS011;690;51.454;7.194;2022-07-05T07:21:40;5.53;;;2.67;;
1390;SDS011;690;51.454;7.194;2022-07-05T07:24:08;4.83;;;2.20;;
1390;SDS011;690;51.454;7.194;2022-07-05T07:26:35;6.37;;;2.43;;
1390;SDS011;690;51.454;7.194;2022-07-05T07:29:19;5.23;;;2.53;;
1390;SDS011;690;51.454;7.194;2022-07-05T07:31:46;2.33;;;2.10;;
1390;SDS011;690;51.454;7.194;2022-07-05T07:34:13;2.47;;;2.00;;
1390;SDS011;690;51.454;7.194;2022-07-05T07:36:42;3.47;;;2.20;;
1390;SDS011;690;51.454;7.194;2022-07-05T07:39:09;4.20;;;1.90;;
1390;SDS011;690;51.454;7.194;2022-07-05T07:41:36;2.37;;;1.80;;
1390;SDS011;690;51.454;7.194;2022-07-05T07:44:04;5.50;;;2.20;;
1390;SDS011;690;51.454;7.194;2022-07-05T07:46:31;4.87;;;2.30;;
1390;SDS011;690;51.454;7.194;2022-07-05T07:48:58;5.03;;;2.00;;
1390;SDS011;690;51.454;7.194;2022-07-05T07:51:25;4.63;;;1.97;;
1390;SDS011;690;51.454;7.194;2022-07-05T07:53:54;2.43;;;2.00;;
1390;SDS011;690;51.454;7.194;2022-07-05T07:56:21;5.30;;;2.43;;
1390;SDS011;690;51.454;7.194;2022-07-05T07:58:48;2.47;;;1.70;;
1390;SDS011;690;51.454;7.194;2022-07-05T08:01:15;2.37;;;1.80;;
1390;SDS011;690;51.454;7.194;2022-07-05T08:03:43;3.53;;;1.80;;
1390;SDS011;690;51.454;7.194;2022-07-05T08:06:11;6.07;;;1.70;;
1390;SDS011;690;51.454;7.194;2022-07-05T08:08:39;3.43;;;2.33;;
1390;SDS011;690;51.454;7.194;2022-07-05T08:11:08;5.17;;;2.50;;
1390;SDS011;690;51.454;7.194;2022-07-05T08:13:36;2.40;;;1.73;;
1390;SDS011;690;51.454;7.194;2022-07-05T08:16:04;4.60;;;1.67;;
1390;SDS011;690;51.454;7.194;2022-07-05T08:18:31;2.27;;;2.07;;
1390;SDS011;690;51.454;7.194;2022-07-05T08:21:15;3.47;;;2.40;;
1390;SDS011;690;51.454;7.194;2022-07-05T08:24:00;2.17;;;1.97;;
1390;SDS011;690;51.454;7.194;2022-07-05T08:26:31;3.50;;;2.00;;
1390;SDS011;690;51.454;7.194;2022-07-05T08:28:58;3.57;;;2.57;;
1390;SDS011;690;51.454;7.194;2022-07-05T08:31:26;3.47;;;2.50;;
1390;SDS011;690;51.454;7.194;2022-07-05T08:33:55;2.80;;;1.90;;
1390;SDS011;690;51.454;7.194;2022-07-05T08:36:22;5.20;;;2.20;;
1390;SDS011;690;51.454;7.194;2022-07-05T08:38:49;2.87;;;2.47;;
1390;SDS011;690;51.454;7.194;2022-07-05T08:41:17;4.27;;;2.00;;
1390;SDS011;690;51.454;7.194;2022-07-05T08:43:46;3.53;;;2.67;;
1390;SDS011;690;51.454;7.194;2022-07-05T08:46:15;4.30;;;2.43;;
1390;SDS011;690;51.454;7.194;2022-07-05T08:48:44;5.07;;;2.37;;
1390;SDS011;690;51.454;7.194;2022-07-05T08:51:14;4.87;;;2.20;;
1390;SDS011;690;51.454;7.194;2022-07-05T08:53:43;6.30;;;2.00;;
1390;SDS011;690;51.454;7.194;2022-07-05T08:56:12;3.60;;;2.27;;
1390;SDS011;690;51.454;7.194;2022-07-05T08:58:40;3.10;;;2.40;;
1390;SDS011;690;51.454;7.194;2022-07-05T09:01:09;2.90;;;2.60;;
1390;SDS011;690;51.454;7.194;2022-07-05T09:03:38;4.60;;;1.90;;
1390;SDS011;690;51.454;7.194;2022-07-05T09:06:08;4.60;;;2.47;;
1390;SDS011;690;51.454;7.194;2022-07-05T09:08:37;7.50;;;2.73;;
1390;SDS011;690;51.454;7.194;2022-07-05T09:11:06;3.93;;;1.77;;
1390;SDS011;690;51.454;7.194;2022-07-05T09:13:35;3.07;;;1.90;;
1390;SDS011;690;51.454;7.194;2022-07-05T09:16:03;2.90;;;1.93;;
1390;SDS011;690;51.454;7.194;2022-07-05T09:21:19;6.20;;;2.40;;
1390;SDS011;690;51.454;7.194;2022-07-05T09:23:53;3.23;;;1.80;;
1390;SDS011;690;51.454;7.194;2022-07-05T09:26:21;3.90;;;2.00;;
1390;SDS011;690;51.454;7.194;2022-07-05T09:28:57;5.50;;;1.90;;
1390;SDS011;690;51.454;7.194;2022-07-05T09:31:28;3.20;;;2.20;;
1390;SDS011;690;51.454;7.194;2022-07-05T09:33:59;4.03;;;1.83;;
1390;SDS011;690;51.454;7.194;2022-07-05T09:36:47;3.17;;;2.10;;
1390;SDS011;690;51.454;7.194;2022-07-05T09:39:15;3.97;;;2.30;;
1390;SDS011;690;51.454;7.194;2022-07-05T09:41:42;2.67;;;2.20;;
1390;SDS011;690;51.454;7.194;2022-07-05T09:44:09;2.93;;;2.20;;
1390;SDS011;690;51.454;7.194;2022-07-05T09:46:36;3.37;;;2.07;;
1390;SDS011;690;51.454;7.194;2022-07-05T09:49:05;2.63;;;2.10;;
1390;SDS011;690;51.454;7.194;2022-07-05T09:51:46;3.53;;;2.07;;
1390;SDS011;690;51.454;7.194;2022-07-05T09:54:14;4.37;;;2.03;;
1390;SDS011;690;51.454;7.194;2022-07-05T09:56:45;4.17;;;1.47;;
1390;SDS011;690;51.454;7.194;2022-07-05T09:59:13;2.60;;;1.50;;
1390;SDS011;690;51.454;7.194;2022-07-05T10:01:43;2.80;;;1.77;;
1390;SDS011;690;51.454;7.194;2022-07-05T10:04:11;3.00;;;2.07;;
1390;SDS011;690;51.454;7.194;2022-07-05T10:06:38;3.60;;;1.70;;
1390;SDS011;690;51.454;7.194;2022-07-05T10:09:07;2.70;;;1.80;;
1390;SDS011;690;51.454;7.194;2022-07-05T10:11:36;5.07;;;2.07;;
1390;SDS011;690;51.454;7.194;2022-07-05T10:14:14;3.00;;;1.80;;
1390;SDS011;690;51.454;7.194;2022-07-05T10:16:45;3.13;;;1.63;;
1390;SDS011;690;51.454;7.194;2022-07-05T10:19:18;2.53;;;1.80;;
1390;SDS011;690;51.454;7.194;2022-07-05T10:21:46;2.00;;;1.50;;
1390;SDS011;690;51.454;7.194;2022-07-05T10:24:15;2.77;;;1.90;;
1390;SDS011;690;51.454;7.194;2022-07-05T10:26:43;3.70;;;2.00;;
1390;SDS011;690;51.454;7.194;2022-07-05T10:29:12;2.33;;;1.80;;
1390;SDS011;690;51.454;7.194;2022-07-05T10:31:40;1.83;;;1.53;;
1390;SDS011;690;51.454;7.194;2022-07-05T10:34:09;1.43;;;1.33;;
1390;SDS011;690;51.454;7.194;2022-07-05T10:36:39;4.03;;;1.97;;
1390;SDS011;690;51.454;7.194;2022-07-05T10:39:08;4.60;;;1.60;;
1390;SDS011;690;51.454;7.194;2022-07-05T10:41:35;1.60;;;1.50;;
1390;SDS011;690;51.454;7.194;2022-07-05T10:44:05;2.63;;;1.83;;
1390;SDS011;690;51.454;7.194;2022-07-05T10:46:33;2.50;;;1.57;;
1390;SDS011;690;51.454;7.194;2022-07-05T10:49:10;4.23;;;2.00;;
1390;SDS011;690;51.454;7.194;2022-07-05T10:51:41;1.80;;;1.50;;
1390;SDS011;690;51.454;7.194;2022-07-05T10:54:09;5.40;;;2.20;;
1390;SDS011;690;51.454;7.194;2022-07-05T10:56:36;3.30;;;1.80;;
1390;SDS011;690;51.454;7.194;2022-07-05T10:59:04;11.23;;;2.07;;
1390;SDS011;690;51.454;7.194;2022-07-05T11:01:35;2.30;;;1.60;;
1390;SDS011;690;51.454;7.194;2022-07-05T11:04:18;2.50;;;1.77;;
1390;SDS011;690;51.454;7.194;2022-07-05T11:06:53;4.30;;;2.20;;
1390;SDS011;690;51.454;7.194;2022-07-05T11:09:20;3.70;;;1.77;;
1390;SDS011;690;51.454;7.194;2022-07-05T11:12:01;2.27;;;1.40;;
1390;SDS011;690;51.454;7.194;2022-07-05T11:17:20;4.97;;;2.13;;
1390;SDS011;690;51.454;7.194;2022-07-05T11:20:10;4.07;;;2.70;;
1390;SDS011;690;51.454;7.194;2022-07-05T11:22:40;3.10;;;1.70;;
1390;SDS011;690;51.454;7.194;2022-07-05T11:25:28;2.63;;;1.27;;
1390;SDS011;690;51.454;7.194;2022-07-05T11:28:00;3.67;;;1.70;;
1390;SDS011;690;51.454;7.194;2022-07-05T11:30:43;4.30;;;2.00;;
1390;SDS011;690;51.454;7.194;2022-07-05T11:36:03;4.23;;;1.90;;
1390;SDS011;690;51.454;7.194;2022-07-05T11:38:33;3.80;;;1.90;;
1390;SDS011;690;51.454;7.194;2022-07-05T11:41:10;3.10;;;1.83;;
1390;SDS011;690;51.454;7.194;2022-07-05T11:43:43;2.50;;;1.47;;
1390;SDS011;690;51.454;7.194;2022-07-05T11:46:22;3.20;;;2.00;;
1390;SDS011;690;51.454;7.194;2022-07-05T11:48:50;3.57;;;1.80;;
1390;SDS011;690;51.454;7.194;2022-07-05T11:51:18;2.53;;;1.80;;
1390;SDS011;690;51.454;7.194;2022-07-05T11:53:47;3.53;;;2.00;;
1390;SDS011;690;51.454;7.194;2022-07-05T11:56:14;2.03;;;1.40;;
1390;SDS011;690;51.454;7.194;2022-07-05T11:58:41;1.60;;;1.33;;
1390;SDS011;690;51.454;7.194;2022-07-05T12:01:08;6.20;;;2.10;;
1390;SDS011;690;51.454;7.194;2022-07-05T12:03:35;2.90;;;1.70;;
1390;SDS011;690;51.454;7.194;2022-07-05T12:06:11;2.83;;;1.57;;
1390;SDS011;690;51.454;7.194;2022-07-05T12:08:39;3.40;;;1.40;;
1390;SDS011;690;51.454;7.194;2022-07-05T12:11:09;4.80;;;1.60;;
1390;SDS011;690;51.454;7.194;2022-07-05T12:13:54;4.10;;;1.50;;
1390;SDS011;690;51.454;7.194;2022-07-05T12:16:21;3.60;;;1.53;;
1390;SDS011;690;51.454;7.194;2022-07-05T12:18:51;3.73;;;1.63;;
1390;SDS011;690;51.454;7.194;2022-07-05T12:21:19;1.90;;;1.60;;
1390;SDS011;690;51.454;7.194;2022-07-05T12:23:47;4.40;;;1.70;;
1390;SDS011;690;51.454;7.194;2022-07-05T12:26:17;2.60;;;1.77;;
1390;SDS011;690;51.454;7.194;2022-07-05T12:28:45;6.43;;;1.90;;
1390;SDS011;690;51.454;7.194;2022-07-05T12:31:19;2.37;;;1.57;;
1390;SDS011;690;51.454;7.194;2022-07-05T12:33:47;1.90;;;1.43;;
1390;SDS011;690;51.454;7.194;2022-07-05T12:36:15;2.90;;;1.60;;
1390;SDS011;690;51.454;7.194;2022-07-05T12:38:43;1.73;;;1.27;;
1390;SDS011;690;51.454;7.194;2022-07-05T12:41:11;2.97;;;1.50;;
1390;SDS011;690;51.454;7.194;2022-07-05T12:43:52;3.50;;;1.87;;
1390;SDS011;690;51.454;7.194;2022-07-05T12:46:19;2.77;;;1.63;;
1390;SDS011;690;51.454;7.194;2022-07-05T12:48:51;4.40;;;1.70;;
1390;SDS011;690;51.454;7.194;2022-07-05T12:51:31;5.80;;;1.60;;
1390;SDS011;690;51.454;7.194;2022-07-05T12:53:59;2.27;;;1.47;;
1390;SDS011;690;51.454;7.194;2022-07-05T12:56:47;3.63;;;2.00;;
1390;SDS011;690;51.454;7.194;2022-07-05T12:59:34;3.10;;;1.83;;
1390;SDS011;690;51.454;7.194;2022-07-05T13:02:02;3.50;;;2.17;;
1390;SDS011;690;51.454;7.194;2022-07-05T13:04:30;3.33;;;1.40;;
1390;SDS011;690;51.454;7.194;2022-07-05T13:06:58;7.60;;;4.80;;
1390;SDS011;690;51.454;7.194;2022-07-05T13:09:29;2.10;;;1.70;;
1390;SDS011;690;51.454;7.194;2022-07-05T13:12:05;2.80;;;2.00;;
1390;SDS011;690;51.454;7.194;2022-07-05T13:14:36;6.10;;;1.93;;
1390;SDS011;690;51.454;7.194;2022-07-05T13:17:04;3.50;;;1.60;;
1390;SDS011;690;51.454;7.194;2022-07-05T13:19:31;1.97;;;1.83;;
1390;SDS011;690;51.454;7.194;2022-07-05T13:21:58;3.80;;;1.70;;
1390;SDS011;690;51.454;7.194;2022-07-05T13:24:25;4.07;;;2.10;;
1390;SDS011;690;51.454;7.194;2022-07-05T13:26:52;2.03;;;1.87;;
1390;SDS011;690;51.454;7.194;2022-07-05T13:29:20;1.83;;;1.50;;
1390;SDS011;690;51.454;7.194;2022-07-05T13:31:48;3.20;;;2.00;;
1390;SDS011;690;51.454;7.194;2022-07-05T13:34:15;3.93;;;2.10;;
1390;SDS011;690;51.454;7.194;2022-07-05T13:36:43;3.77;;;1.87;;
1390;SDS011;690;51.454;7.194;2022-07-05T13:39:11;2.30;;;1.73;;
1390;SDS011;690;51.454;7.194;2022-07-05T13:41:38;2.60;;;1.80;;
1390;SDS011;690;51.454;7.194;2022-07-05T13:44:05;3.00;;;2.03;;
1390;SDS011;690;51.454;7.194;2022-07-05T13:46:32;7.70;;;2.97;;
1390;SDS011;690;51.454;7.194;2022-07-05T13:49:00;3.63;;;2.10;;
1390;SDS011;690;51.454;7.194;2022-07-05T13:51:27;4.10;;;2.53;;
1390;SDS011;690;51.454;7.194;2022-07-05T13:53:55;2.57;;;1.80;;
1390;SDS011;690;51.454;7.194;2022-07-05T13:56:24;2.80;;;1.80;;
1390;SDS011;690;51.454;7.194;2022-07-05T13:58:52;5.37;;;2.47;;
1390;SDS011;690;51.454;7.194;2022-07-05T14:01:19;3.13;;;2.30;;
1390;SDS011;690;51.454;7.194;2022-07-05T14:03:51;2.30;;;1.93;;
1390;SDS011;690;51.454;7.194;2022-07-05T14:06:19;4.07;;;2.00;;
1390;SDS011;690;51.454;7.194;2022-07-05T14:08:46;5.10;;;2.07;;
1390;SDS011;690;51.454;7.194;2022-07-05T14:11:13;4.00;;;2.67;;
1390;SDS011;690;51.454;7.194;2022-07-05T14:13:40;2.57;;;2.20;;
1390;SDS011;690;51.454;7.194;2022-07-05T14:16:08;5.70;;;3.10;;
1390;SDS011;690;51.454;7.194;2022-07-05T14:18:35;2.60;;;2.40;;
1390;SDS011;690;51.454;7.194;2022-07-05T14:21:03;3.00;;;2.00;;
1390;SDS011;690;51.454;7.194;2022-07-05T14:23:31;3.10;;;2.00;;
1390;SDS011;690;51.454;7.194;2022-07-05T14:25:58;3.13;;;2.23;;
1390;SDS011;690;51.454;7.194;2022-07-05T14:28:26;2.40;;;2.20;;
1390;SDS011;690;51.454;7.194;2022-07-05T14:30:53;2.33;;;2.13;;
1390;SDS011;690;51.454;7.194;2022-07-05T14:33:20;3.93;;;1.90;;
1390;SDS011;690;51.454;7.194;2022-07-05T14:35:47;2.50;;;1.83;;
1390;SDS011;690;51.454;7.194;2022-07-05T14:38:15;5.23;;;2.70;;
1390;SDS011;690;51.454;7.194;2022-07-05T14:40:43;3.97;;;1.90;;
1390;SDS011;690;51.454;7.194;2022-07-05T14:43:10;2.53;;;2.00;;
1390;SDS011;690;51.454;7.194;2022-07-05T14:45:43;3.13;;;2.30;;
1390;SDS011;690;51.454;7.194;2022-07-05T14:48:10;2.80;;;2.40;;
1390;SDS011;690;51.454;7.194;2022-07-05T14:50:37;2.73;;;2.00;;
1390;SDS011;690;51.454;7.194;2022-07-05T14:53:04;3.67;;;2.37;;
1390;SDS011;690;51.454;7.194;2022-07-05T14:55:33;2.77;;;2.00;;
1390;SDS011;690;51.454;7.194;2022-07-05T14:58:02;3.47;;;2.57;;
1390;SDS011;690;51.454;7.194;2022-07-05T15:00:29;2.87;;;2.33;;
1390;SDS011;690;51.454;7.194;2022-07-05T15:02:58;4.40;;;2.27;;
1390;SDS011;690;51.454;7.194;2022-07-05T15:05:25;4.27;;;2.63;;
1390;SDS011;690;51.454;7.194;2022-07-05T15:07:52;3.07;;;2.53;;
1390;SDS011;690;51.454;7.194;2022-07-05T15:10:19;3.30;;;2.20;;
1390;SDS011;690;51.454;7.194;2022-07-05T15:12:46;2.20;;;1.97;;
1390;SDS011;690;51.454;7.194;2022-07-05T15:15:14;2.90;;;2.70;;
1390;SDS011;690;51.454;7.194;2022-07-05T15:17:41;4.30;;;2.50;;
1390;SDS011;690;51.454;7.194;2022-07-05T15:20:09;3.57;;;2.50;;
1390;SDS011;690;51.454;7.194;2022-07-05T15:22:36;2.90;;;2.60;;
1390;SDS011;690;51.454;7.194;2022-07-05T15:25:04;3.03;;;2.57;;
1390;SDS011;690;51.454;7.194;2022-07-05T15:27:33;3.80;;;3.00;;
1390;SDS011;690;51.454;7.194;2022-07-05T15:29:59;4.80;;;2.87;;
1390;SDS011;690;51.454;7.194;2022-07-05T15:32:31;4.83;;;2.87;;
1390;SDS011;690;51.454;7.194;2022-07-05T15:34:58;3.03;;;2.63;;
1390;SDS011;690;51.454;7.194;2022-07-05T15:37:25;4.73;;;2.93;;
1390;SDS011;690;51.454;7.194;2022-07-05T15:39:52;4.23;;;3.10;;
1390;SDS011;690;51.454;7.194;2022-07-05T15:42:23;6.03;;;3.10;;
1390;SDS011;690;51.454;7.194;2022-07-05T15:44:50;5.60;;;3.70;;
1390;SDS011;690;51.454;7.194;2022-07-05T15:47:17;3.13;;;2.87;;